Jamestown, Missouri
Current Conditions -  °F | °C
As of 9:54 PM on Thursday 20 Nov 2014 (Local Time) from KCOU Reporting Station
Clear Clear  
Wind Chill: 23°   Ceiling: Unl
Heat Index: 28°   Visibility: 10mi
Dew Point: 17°   Wind: 5mph
Humidity: 63%   Direction: 60°ENE
Pressure: 30.28"   Gusts: NA
Location:  38.77°N, 92.48°W
Report Text: KCOU 210354Z AUTO 06004KT 10SM CLR M02/M08 A3028 RMK AO2 SLP264 T10221083
Loading
Personal Weather Stations






























Interactive Weather Map New forecast layout! Learn more

10-Day Weather Forecast

Advertisements
Track Severe Weather on mobile